Time;durP1;ratioP1;P1;durP2;ratioP2;P2;SDS_P1;SDS_P2;PMS_P1;PMS_P2;Temp;Humidity;BMP_temperature;BMP_pressure;BME280_temperature;BME280_humidity;BME280_pressure;Samples;Min_cycle;Max_cycle;Signal;HPM_P1;HPM_P2
2021/03/06 00:00:56;;;;;;;76.20;33.98;;;;;;;-2.37;67.60;101688.65;2175387;81;31157;-64
2021/03/06 00:03:59;;;;;;;58.85;30.72;;;;;;;-2.40;67.72;101685.53;2175397;81;37184;-64
2021/03/06 00:07:01;;;;;;;60.92;29.18;;;;;;;-2.43;67.85;101685.45;2175318;81;28784;-64
2021/03/06 00:10:05;;;;;;;58.45;28.40;;;;;;;-2.45;67.88;101693.30;2175551;81;27632;-64
2021/03/06 00:13:08;;;;;;;56.15;30.00;;;;;;;-2.46;67.90;101694.14;2175732;80;29006;-64
2021/03/06 00:16:10;;;;;;;61.08;28.12;;;;;;;-2.47;67.99;101683.58;2175365;81;32167;-64
2021/03/06 00:19:12;;;;;;;59.00;29.37;;;;;;;-2.47;67.94;101687.11;2175262;81;34525;-64
2021/03/06 00:22:14;;;;;;;60.98;28.25;;;;;;;-2.47;68.07;101685.80;2175299;81;31298;-64
2021/03/06 00:25:19;;;;;;;57.75;28.02;;;;;;;-2.47;68.05;101688.83;2175378;81;27956;-64
2021/03/06 00:28:21;;;;;;;55.43;26.93;;;;;;;-2.47;68.08;101690.14;2175380;81;29443;-65
2021/03/06 00:31:23;;;;;;;58.83;29.52;;;;;;;-2.46;68.12;101698.08;2176497;80;32097;-64
2021/03/06 00:34:26;;;;;;;48.68;26.57;;;;;;;-2.46;68.31;101693.23;2190458;80;33067;-64
2021/03/06 00:37:28;;;;;;;55.03;25.40;;;;;;;-2.46;68.26;101693.23;2215246;80;28918;-64
2021/03/06 00:40:30;;;;;;;57.20;26.23;;;;;;;-2.46;68.23;101697.17;2213504;80;27666;-64
2021/03/06 00:43:32;;;;;;;60.98;26.65;;;;;;;-2.45;68.16;101696.32;2215149;80;29784;-65
2021/03/06 00:46:34;;;;;;;52.88;24.23;;;;;;;-2.45;68.19;101695.02;2215163;80;31165;-64
2021/03/06 00:49:36;;;;;;;53.08;25.97;;;;;;;-2.43;68.16;101699.88;2215178;80;33173;-64
2021/03/06 00:52:39;;;;;;;57.20;26.57;;;;;;;-2.45;68.18;101696.32;2208185;80;29366;-64
2021/03/06 00:55:41;;;;;;;58.40;25.68;;;;;;;-2.46;68.06;101695.45;2181528;81;27678;-64
2021/03/06 00:58:43;;;;;;;49.25;25.60;;;;;;;-2.44;68.01;101694.16;2181413;81;29250;-64
2021/03/06 01:01:45;;;;;;;53.10;25.40;;;;;;;-2.46;67.95;101692.83;2181385;81;32039;-64
2021/03/06 01:04:47;;;;;;;54.50;25.70;;;;;;;-2.47;67.93;101697.61;2181443;81;33642;-65
2021/03/06 01:07:49;;;;;;;49.20;25.35;;;;;;;-2.47;67.99;101681.86;2181557;81;28853;-65
2021/03/06 01:10:52;;;;;;;47.48;24.52;;;;;;;-2.46;67.93;101696.76;2188742;80;27679;-64
2021/03/06 01:13:54;;;;;;;57.73;25.15;;;;;;;-2.46;67.93;101686.67;2215409;80;29238;-64
2021/03/06 01:16:56;;;;;;;55.12;27.10;;;;;;;-2.48;67.84;101686.64;2200197;80;32512;-65
2021/03/06 01:19:58;;;;;;;56.45;25.85;;;;;;;-2.47;67.85;101691.05;2175410;81;33984;-65
2021/03/06 01:23:02;;;;;;;55.40;24.82;;;;;;;-2.48;67.83;101685.33;2181326;80;31443;-64
2021/03/06 01:26:04;;;;;;;53.38;26.50;;;;;;;-2.48;67.75;101689.27;2176311;80;27759;-65
2021/03/06 01:29:06;;;;;;;61.08;26.75;;;;;;;-2.48;67.75;101689.70;2175386;81;28816;-65
2021/03/06 01:32:08;;;;;;;58.38;26.10;;;;;;;-2.50;67.69;101689.65;2175369;81;32182;-64
2021/03/06 01:35:12;;;;;;;60.95;24.70;;;;;;;-2.51;67.73;101685.69;2177818;80;33132;-67
2021/03/06 01:38:15;;;;;;;52.40;25.70;;;;;;;-2.54;67.75;101681.22;2186523;80;29191;-68
2021/03/06 01:41:17;;;;;;;47.98;24.57;;;;;;;-2.56;67.70;101682.91;2215436;80;27603;-67
2021/03/06 01:44:19;;;;;;;52.33;24.00;;;;;;;-2.58;67.71;101683.33;2175931;80;29229;-66
2021/03/06 01:47:21;;;;;;;53.60;24.87;;;;;;;-2.59;67.67;101680.23;2188066;80;31152;-67
2021/03/06 01:50:31;;;;;;;53.15;23.73;;;;;;;-2.61;67.80;101687.17;2185783;81;33580;-67
2021/03/06 01:53:33;;;;;;;58.52;24.43;;;;;;;-2.63;67.73;101686.23;2185819;81;29314;-67
2021/03/06 01:56:35;;;;;;;52.43;24.10;;;;;;;-2.65;67.75;101690.55;2197184;80;27622;-66
2021/03/06 01:59:37;;;;;;;59.48;25.05;;;;;;;-2.68;67.61;101687.43;2208751;80;28792;-67
2021/03/06 02:02:39;;;;;;;53.45;22.90;;;;;;;-2.70;67.64;101676.41;2208771;80;31127;-66
2021/03/06 02:05:44;;;;;;;63.45;23.65;;;;;;;-2.73;67.65;101685.53;2208163;80;33123;-65
2021/03/06 02:08:49;;;;;;;51.88;23.10;;;;;;;-2.76;67.59;101682.38;2191413;80;28563;-65
2021/03/06 02:12:06;;;;;;;52.35;22.45;;;;;;;-2.76;67.60;101685.00;2184364;80;28524;-65
2021/03/06 02:15:32;;;;;;;49.30;21.85;;;;;;;-2.78;67.59;101678.42;2212646;80;28864;-66
2021/03/06 02:18:48;;;;;;;51.95;22.00;;;;;;;-2.79;67.44;101677.05;2153566;80;32002;-66
2021/03/06 02:22:05;;;;;;;49.73;21.87;;;;;;;-2.81;67.42;101681.39;2178317;81;33138;-67
2021/03/06 02:25:35;;;;;;;53.30;23.87;;;;;;;-2.85;67.38;101685.63;2176937;80;29258;-66
2021/03/06 02:28:59;;;;;;;53.65;22.98;;;;;;;-2.90;67.37;101692.06;2148640;82;28218;-66
2021/03/06 02:32:12;;;;;;;46.30;21.65;;;;;;;-2.97;67.38;101690.10;2164357;80;28796;-66
2021/03/06 02:35:22;;;;;;;48.38;22.60;;;;;;;-3.01;67.43;101692.59;2214395;80;31159;-66
2021/03/06 02:38:27;;;;;;;41.83;21.45;;;;;;;-3.01;67.46;101686.05;2177306;80;33274;-66
2021/03/06 02:41:32;;;;;;;47.45;21.27;;;;;;;-3.04;67.42;101682.92;2175564;81;29235;-67
2021/03/06 02:44:35;;;;;;;45.58;20.65;;;;;;;-3.05;67.40;101686.39;2175629;81;27705;-66
2021/03/06 02:47:38;;;;;;;49.10;21.37;;;;;;;-3.09;67.47;101686.73;2201718;80;28818;-66
2021/03/06 02:50:40;;;;;;;47.70;21.62;;;;;;;-3.11;67.47;101688.82;2208758;80;31297;-68
2021/03/06 02:53:42;;;;;;;44.88;21.75;;;;;;;-3.16;67.48;101689.13;2208612;80;33551;-66
2021/03/06 02:56:44;;;;;;;43.58;20.52;;;;;;;-3.19;67.46;101685.98;2197094;80;29233;-66
2021/03/06 03:00:19;;;;;;;47.80;21.12;;;;;;;-3.19;67.43;101679.86;2177364;81;28636;-66
2021/03/06 03:03:58;;;;;;;48.10;22.42;;;;;;;-3.23;67.40;101686.31;2116414;82;28883;-66
2021/03/06 03:07:09;;;;;;;50.80;21.48;;;;;;;-3.27;67.45;101695.36;2110927;84;31222;-66
2021/03/06 03:10:13;;;;;;;51.15;22.75;;;;;;;-3.31;67.49;101699.62;2139324;83;32950;-66
2021/03/06 03:13:30;;;;;;;49.10;23.87;;;;;;;-3.36;67.53;101702.09;2138689;82;30099;-67
2021/03/06 03:16:41;;;;;;;50.15;22.98;;;;;;;-3.38;67.51;101705.52;2140903;82;27691;-68
2021/03/06 03:20:02;;;;;;;54.27;23.40;;;;;;;-3.42;67.56;101706.25;2145473;82;31376;-67
2021/03/06 03:23:12;;;;;;;48.08;22.48;;;;;;;-3.42;67.62;101713.70;2145853;82;31151;-67
2021/03/06 03:26:16;;;;;;;48.48;22.70;;;;;;;-3.44;67.62;101710.55;2145072;82;33151;-66
2021/03/06 03:29:19;;;;;;;51.45;22.75;;;;;;;-3.48;67.61;101707.39;2134086;83;29110;-67
2021/03/06 03:32:23;;;;;;;55.75;23.02;;;;;;;-3.49;67.61;101710.86;2133735;82;27697;-66
2021/03/06 03:35:26;;;;;;;53.65;21.77;;;;;;;-3.51;67.65;101710.78;2133752;83;28907;-68
2021/03/06 03:38:29;;;;;;;44.93;21.85;;;;;;;-3.53;67.68;101712.06;2111178;84;32052;-68
2021/03/06 03:41:32;;;;;;;48.00;20.48;;;;;;;-3.56;67.62;101711.96;2107710;84;33229;-68
2021/03/06 03:44:37;;;;;;;51.65;22.32;;;;;;;-3.60;67.64;101718.37;2107756;84;30152;-67
2021/03/06 03:47:40;;;;;;;53.33;20.77;;;;;;;-3.63;67.72;101720.45;2134033;82;27645;-67
2021/03/06 03:50:42;;;;;;;50.65;22.75;;;;;;;-3.72;67.81;101702.72;2156514;82;28855;-67
2021/03/06 03:53:45;;;;;;;49.05;21.68;;;;;;;-3.64;67.71;101720.02;2167531;81;31150;-66
2021/03/06 03:56:47;;;;;;;54.18;22.50;;;;;;;-3.67;67.73;101722.09;2142171;82;34129;-67
2021/03/06 03:59:50;;;;;;;48.80;20.15;;;;;;;-3.67;67.67;101719.91;2175859;81;29160;-66
2021/03/06 04:02:52;;;;;;;49.27;20.15;;;;;;;-3.70;67.68;101722.42;2176336;81;27722;-66
2021/03/06 04:05:57;;;;;;;46.33;20.75;;;;;;;-3.71;67.71;101729.38;2172652;81;31069;-66
2021/03/06 04:08:59;;;;;;;45.60;20.27;;;;;;;-3.73;67.67;101726.25;2153828;81;31151;-67
2021/03/06 04:12:02;;;;;;;44.60;19.95;;;;;;;-3.75;67.67;101734.47;2172163;81;35468;-67
2021/03/06 04:15:06;;;;;;;46.95;20.85;;;;;;;-3.77;67.68;101736.14;2147386;82;29176;-66
2021/03/06 04:18:08;;;;;;;47.08;20.45;;;;;;;-3.79;67.71;101736.11;2121508;82;27682;-66
2021/03/06 04:21:10;;;;;;;46.92;19.82;;;;;;;-3.80;67.68;101742.62;2145697;82;29779;-67
2021/03/06 04:24:13;;;;;;;46.65;19.85;;;;;;;-3.82;67.72;101747.78;2150060;82;31618;-67
2021/03/06 04:27:15;;;;;;;44.90;19.35;;;;;;;-3.85;67.70;101745.06;2146938;82;33396;-67
2021/03/06 04:30:18;;;;;;;52.48;18.48;;;;;;;-3.88;67.74;101738.41;2153712;82;29175;-67
2021/03/06 04:33:20;;;;;;;38.53;18.55;;;;;;;-3.90;67.71;101739.68;2153682;82;27705;-67
2021/03/06 04:36:22;;;;;;;43.52;18.92;;;;;;;-3.92;67.75;101734.81;2151384;82;28798;-67
2021/03/06 04:39:24;;;;;;;45.73;19.82;;;;;;;-3.95;67.77;101732.08;2119452;82;31154;-67
2021/03/06 04:42:26;;;;;;;50.88;19.90;;;;;;;-3.94;67.80;101733.86;2153706;82;33117;-68
2021/03/06 04:45:28;;;;;;;45.25;19.70;;;;;;;-3.96;67.83;101732.92;2150581;82;29271;-68
2021/03/06 04:48:30;;;;;;;42.38;20.17;;;;;;;-3.97;67.79;101729.86;2153477;82;27608;-68
2021/03/06 04:51:32;;;;;;;44.13;19.60;;;;;;;-4.01;67.81;101735.39;2154102;82;28853;-65
2021/03/06 04:54:35;;;;;;;45.80;19.98;;;;;;;-4.02;67.79;101732.73;2151229;82;31118;-67
2021/03/06 04:57:37;;;;;;;47.45;21.35;;;;;;;-4.05;67.79;101741.35;2135761;83;33579;-67
2021/03/06 05:00:39;;;;;;;51.05;21.30;;;;;;;-4.07;67.82;101740.84;2136361;83;29179;-67
2021/03/06 05:03:41;;;;;;;45.38;21.33;;;;;;;-4.11;67.90;101739.86;2136347;83;27693;-67
2021/03/06 05:06:45;;;;;;;47.03;21.87;;;;;;;-4.14;67.96;101744.58;2138719;83;28815;-67
2021/03/06 05:09:47;;;;;;;50.52;22.58;;;;;;;-4.15;67.97;101744.50;2136194;83;31159;-67
2021/03/06 05:12:50;;;;;;;51.20;21.10;;;;;;;-4.15;68.12;101741.48;2136231;83;34137;-66
2021/03/06 05:15:52;;;;;;;55.98;22.35;;;;;;;-4.16;68.05;101742.33;2135433;83;29112;-65
2021/03/06 05:18:55;;;;;;;50.23;21.90;;;;;;;-4.15;68.09;101745.81;2136446;83;27643;-65
2021/03/06 05:21:57;;;;;;;52.83;22.50;;;;;;;-4.16;68.11;101740.11;2136210;83;31171;-67
2021/03/06 05:24:59;;;;;;;56.30;24.37;;;;;;;-4.14;68.14;101748.50;2137849;83;31134;-66
2021/03/06 05:28:02;;;;;;;54.33;22.55;;;;;;;-4.14;68.18;101744.58;2142076;83;35407;-66
2021/03/06 05:31:04;;;;;;;49.90;21.73;;;;;;;-4.13;68.18;101738.48;2136474;83;29166;-67
2021/03/06 05:34:06;;;;;;;55.33;23.73;;;;;;;-4.14;68.17;101739.34;2135975;83;27723;-67
2021/03/06 05:37:08;;;;;;;49.75;22.80;;;;;;;-4.14;68.18;101745.89;2140869;83;28815;-67
2021/03/06 05:40:12;;;;;;;51.48;22.87;;;;;;;-4.14;68.21;101744.58;2143635;83;31135;-66
2021/03/06 05:43:15;;;;;;;43.42;21.07;;;;;;;-4.13;68.27;101745.02;2142876;83;33112;-67
2021/03/06 05:46:19;;;;;;;47.23;22.22;;;;;;;-4.10;68.40;101751.20;2139587;83;29197;-67
2021/03/06 05:49:21;;;;;;;53.00;23.80;;;;;;;-4.08;68.45;101750.84;2103498;83;27669;-66
2021/03/06 05:52:24;;;;;;;52.73;21.93;;;;;;;-4.05;68.48;101757.48;2137211;83;29723;-72
2021/03/06 05:55:27;;;;;;;56.85;22.37;;;;;;;-4.02;68.57;101758.91;2140769;82;32036;-68
2021/03/06 05:58:30;;;;;;;59.90;25.17;;;;;;;-3.99;68.67;101764.25;2148217;82;33138;-78
2021/03/06 06:01:34;;;;;;;57.43;24.95;;;;;;;-3.93;68.72;101768.80;2150343;82;29151;-78
2021/03/06 06:04:36;;;;;;;65.12;25.30;;;;;;;-3.89;68.72;101768.95;2127060;82;27805;-75
2021/03/06 06:07:40;;;;;;;62.48;23.95;;;;;;;-3.82;68.79;101768.73;2136468;82;28816;-77
2021/03/06 06:10:42;;;;;;;55.48;24.02;;;;;;;-3.77;68.98;101768.47;2142926;83;31152;-75
2021/03/06 06:13:44;;;;;;;46.02;20.97;;;;;;;-3.73;69.10;101771.67;2142899;82;32972;-75
2021/03/06 06:16:48;;;;;;;50.65;23.35;;;;;;;-3.66;69.14;101779.31;2143017;83;29156;-77
2021/03/06 06:19:51;;;;;;;47.65;23.25;;;;;;;-3.58;69.24;101788.28;2126052;83;27742;-77
2021/03/06 06:23:14;;;;;;;56.88;23.62;;;;;;;-3.49;69.38;101795.99;2117091;83;29821;-77
2021/03/06 06:26:16;;;;;;;53.98;22.55;;;;;;;-3.39;69.49;101801.98;2133300;82;31163;-70
2021/03/06 06:29:19;;;;;;;52.00;22.52;;;;;;;-3.15;69.67;101806.23;2117892;84;33120;-71
2021/03/06 06:32:26;;;;;;;64.70;27.45;;;;;;;-2.87;69.67;101797.45;2098411;83;29160;-72
2021/03/06 06:35:28;;;;;;;59.90;26.35;;;;;;;-2.56;69.55;101809.28;2140093;83;27725;-71
2021/03/06 06:38:44;;;;;;;56.35;23.75;;;;;;;-2.24;69.52;101804.05;2123912;83;28802;-72
2021/03/06 06:41:56;;;;;;;58.00;22.90;;;;;;;-1.92;69.34;101809.27;2118008;84;31262;-71
2021/03/06 06:44:59;;;;;;;54.83;25.75;;;;;;;-1.59;69.12;101805.73;2117416;84;33110;-72
2021/03/06 06:48:10;;;;;;;44.55;19.55;;;;;;;-1.26;68.86;101807.40;2132817;83;29221;-74
2021/03/06 06:51:13;;;;;;;39.88;19.15;;;;;;;-0.97;68.41;101816.37;2126616;82;28631;-71
2021/03/06 06:54:15;;;;;;;34.78;18.45;;;;;;;-0.69;68.20;101817.88;2150023;81;28868;-72
2021/03/06 06:57:17;;;;;;;40.58;21.15;;;;;;;-0.42;67.86;101815.80;2141652;82;31545;-72
2021/03/06 07:00:21;;;;;;;40.48;20.68;;;;;;;-0.18;67.59;101808.39;2093270;85;33215;-74
2021/03/06 07:03:24;;;;;;;33.60;19.15;;;;;;;0.04;67.11;101816.68;2112276;84;37235;-72
2021/03/06 07:06:26;;;;;;;37.78;18.45;;;;;;;0.26;66.95;101822.34;2113197;83;27774;-74
2021/03/06 07:09:28;;;;;;;36.10;17.90;;;;;;;0.48;66.70;101820.09;2125859;83;28038;-69
2021/03/06 07:12:33;;;;;;;39.58;19.50;;;;;;;0.69;66.46;101819.55;2137777;83;32461;-75
2021/03/06 07:15:37;;;;;;;31.60;17.85;;;;;;;0.88;66.20;101815.02;2139526;83;32935;-72
2021/03/06 07:18:39;;;;;;;28.77;14.00;;;;;;;1.13;65.78;101817.13;2128580;83;29192;-69
2021/03/06 07:21:51;;;;;;;38.08;19.60;;;;;;;1.37;65.64;101823.16;2111717;83;27722;-68
2021/03/06 07:24:53;;;;;;;33.50;16.52;;;;;;;1.61;65.26;101819.94;2129341;83;28060;-71
2021/03/06 07:27:55;;;;;;;42.93;21.90;;;;;;;1.88;65.42;101814.96;2139580;83;31137;-72
2021/03/06 07:30:58;;;;;;;27.85;16.20;;;;;;;2.17;64.91;101813.05;2115898;83;33146;-71
2021/03/06 07:34:00;;;;;;;33.88;14.93;;;;;;;2.42;64.27;101815.48;2111857;84;29172;-71
2021/03/06 07:37:06;;;;;;;24.82;12.68;;;;;;;2.68;64.27;101809.08;2113949;83;27650;-69
2021/03/06 07:40:14;;;;;;;23.83;12.23;;;;;;;2.92;63.49;101803.95;2119490;83;28840;-74
2021/03/06 07:43:23;;;;;;;23.25;12.00;;;;;;;3.13;63.12;101808.05;2112927;83;32138;-75
2021/03/06 07:46:27;;;;;;;23.12;12.00;;;;;;;3.35;62.49;101810.79;2133296;83;34051;-78
2021/03/06 07:49:32;;;;;;;21.15;10.82;;;;;;;3.56;62.49;101816.62;2082813;84;29042;-70
2021/03/06 07:52:38;;;;;;;18.95;11.45;;;;;;;3.80;62.58;101814.95;2083623;84;27733;-69
2021/03/06 07:55:40;;;;;;;20.43;9.53;;;;;;;4.05;61.56;101812.38;2156015;82;28165;-78
2021/03/06 07:58:49;;;;;;;16.32;9.35;;;;;;;4.25;61.07;101823.87;2152099;82;31102;-77
2021/03/06 08:01:52;;;;;;;16.27;9.15;;;;;;;4.41;60.81;101815.92;2132976;83;33102;-78
2021/03/06 08:04:54;;;;;;;20.82;9.15;;;;;;;4.61;60.35;101818.61;2108704;83;29175;-78
2021/03/06 08:07:56;;;;;;;15.88;7.87;;;;;;;4.76;60.10;101812.84;2138786;82;27751;-75
2021/03/06 08:11:17;;;;;;;13.98;8.83;;;;;;;4.90;60.09;101818.11;2135867;82;28829;-75
2021/03/06 08:14:32;;;;;;;18.30;8.68;;;;;;;5.11;59.08;101814.09;2135740;83;32042;-73
2021/03/06 08:17:37;;;;;;;16.77;7.87;;;;;;;5.21;58.44;101810.98;2136049;83;33153;-75
2021/03/06 08:20:39;;;;;;;14.07;8.05;;;;;;;5.33;58.54;101812.72;2136573;83;28372;-74
2021/03/06 08:23:42;;;;;;;14.68;7.75;;;;;;;5.43;58.28;101817.09;2136167;83;27816;-74
2021/03/06 08:27:07;;;;;;;13.20;7.60;;;;;;;5.48;57.72;101806.02;2136271;83;29693;-73
2021/03/06 08:30:15;;;;;;;16.00;8.50;;;;;;;5.50;57.30;101805.99;2062936;85;31169;-74
2021/03/06 08:33:18;;;;;;;14.98;8.28;;;;;;;5.50;57.54;101805.99;2105124;84;33804;-74
2021/03/06 08:36:24;;;;;;;20.08;9.80;;;;;;;5.45;57.46;101810.47;2107762;84;29231;-76
2021/03/06 08:39:26;;;;;;;37.35;19.40;;;;;;;5.37;57.39;101807.84;2154115;82;27717;-74
2021/03/06 08:42:46;;;;;;;88.00;39.27;;;;;;;5.30;56.97;101809.61;2162661;82;28563;-74
2021/03/06 08:45:49;;;;;;;101.05;48.15;;;;;;;5.18;57.04;101809.65;2162176;82;31161;-72
2021/03/06 08:48:51;;;;;;;26.57;13.53;;;;;;;5.06;56.11;101809.69;2121770;83;34040;-78
2021/03/06 08:51:54;;;;;;;30.55;14.18;;;;;;;4.95;56.41;101807.95;2141841;83;30091;-78
2021/03/06 08:54:57;;;;;;;46.00;24.98;;;;;;;4.90;56.98;101812.38;2141948;83;27646;-77
2021/03/06 08:58:03;;;;;;;18.07;9.45;;;;;;;4.88;56.86;101810.16;2104591;82;29861;-78
2021/03/06 09:01:05;;;;;;;13.20;8.00;;;;;;;4.90;56.30;101811.48;2101134;84;31246;-77
2021/03/06 09:04:08;;;;;;;26.50;16.02;;;;;;;4.89;56.76;101808.38;2101451;84;34030;-80
2021/03/06 09:07:28;;;;;;;24.87;14.78;;;;;;;4.90;55.90;101809.72;2102735;83;29687;-79
2021/03/06 09:10:39;;;;;;;77.37;35.55;;;;;;;4.88;55.82;101812.81;2137104;83;28223;-78
2021/03/06 09:13:41;;;;;;;14.03;6.72;;;;;;;4.89;55.60;101811.94;2137282;83;28823;-78
2021/03/06 09:16:50;;;;;;;11.40;5.87;;;;;;;4.90;55.43;101813.70;2137337;83;31145;-82
2021/03/06 09:19:53;;;;;;;20.17;9.68;;;;;;;4.93;54.92;101810.15;2103325;83;33137;-81
2021/03/06 09:22:55;;;;;;;27.05;13.85;;;;;;;4.95;54.26;101813.69;2053814;84;29173;-77
2021/03/06 09:29:29;;;;;;;12.10;5.00;;;;;;;5.03;54.34;101805.28;2251695;77;27735;-78
2021/03/06 09:32:35;;;;;;;18.80;9.25;;;;;;;5.01;53.72;101801.28;2217692;80;28229;-78
2021/03/06 09:35:38;;;;;;;15.05;8.13;;;;;;;5.01;53.31;101807.92;2217684;80;28822;-78
2021/03/06 09:38:49;;;;;;;8.50;5.42;;;;;;;5.04;53.30;101808.80;2197237;80;31147;-81
2021/03/06 09:41:53;;;;;;;11.57;6.85;;;;;;;5.06;53.44;101805.24;2178806;81;33126;-75
2021/03/06 09:44:55;;;;;;;9.20;6.17;;;;;;;5.08;53.12;101808.78;2178733;81;28462;-73
2021/03/06 09:48:15;;;;;;;15.03;7.80;;;;;;;5.13;53.33;101807.02;2189348;80;27619;-75
2021/03/06 09:51:17;;;;;;;12.75;6.70;;;;;;;5.20;52.90;101805.22;2217468;80;28776;-75
2021/03/06 09:54:22;;;;;;;12.13;5.83;;;;;;;5.25;52.55;101804.77;2217248;80;30334;-75
2021/03/06 09:57:26;;;;;;;12.95;7.17;;;;;;;5.28;52.50;101799.45;2214372;80;33119;-73
2021/03/06 10:00:29;;;;;;;8.85;4.40;;;;;;;5.35;52.00;101794.09;2178693;81;28891;-74
2021/03/06 10:03:34;;;;;;;6.95;3.62;;;;;;;5.42;50.42;101794.06;2178979;81;27744;-63
2021/03/06 10:06:36;;;;;;;;;;;;;;;5.44;51.75;101794.95;2181614;81;28898;-63
2021/03/06 10:09:39;;;;;;;14.78;4.58;;;;;;;5.56;51.02;101798.44;2210326;80;31242;-63
2021/03/06 10:12:48;;;;;;;9.18;5.28;;;;;;;5.61;51.19;101796.65;2217207;80;35501;-61
2021/03/06 10:15:53;;;;;;;7.10;3.33;;;;;;;5.68;51.03;101800.16;2191604;78;29776;-70
2021/03/06 10:19:02;;;;;;;10.15;6.08;;;;;;;5.74;50.80;101796.15;2186817;80;28204;-61
2021/03/06 10:22:09;;;;;;;14.35;7.20;;;;;;;5.80;49.79;101793.90;2191519;80;30290;-58
2021/03/06 10:25:15;;;;;;;10.28;3.87;;;;;;;5.85;49.56;101800.95;2196899;78;31207;-59
2021/03/06 10:28:17;;;;;;;12.35;5.87;;;;;;;5.90;49.56;101794.27;2194250;80;34044;-59
2021/03/06 10:31:37;;;;;;;6.78;4.62;;;;;;;5.92;48.73;101782.75;2192265;78;28840;-59
2021/03/06 10:34:41;;;;;;;14.85;7.15;;;;;;;5.95;49.59;101780.50;2191158;78;27679;-59
2021/03/06 10:37:51;;;;;;;12.68;6.33;;;;;;;5.99;48.91;101779.59;2191739;80;28831;-59
2021/03/06 10:41:05;;;;;;;7.10;4.20;;;;;;;6.08;49.34;101774.70;2191035;78;31149;-62
2021/03/06 10:44:09;;;;;;;7.65;3.50;;;;;;;6.17;49.28;101762.64;2219435;78;33160;-61
2021/03/06 10:47:13;;;;;;;9.38;4.47;;;;;;;6.25;48.26;101769.70;2206297;80;28837;-61
2021/03/06 10:50:33;;;;;;;5.37;3.60;;;;;;;6.30;48.57;101767.86;2204801;78;27671;-61
2021/03/06 10:53:38;;;;;;;6.90;3.65;;;;;;;6.43;48.87;101766.89;2210173;78;28815;-61
2021/03/06 10:56:42;;;;;;;8.40;3.27;;;;;;;6.57;48.14;101759.22;2163662;80;31149;-61
2021/03/06 10:59:45;;;;;;;7.72;4.47;;;;;;;6.71;48.42;101749.31;2169456;80;33095;-61
2021/03/06 11:02:59;;;;;;;5.33;3.58;;;;;;;6.86;48.35;101748.72;2157341;80;29862;-61
2021/03/06 11:06:02;;;;;;;3.72;2.50;;;;;;;6.96;47.72;101752.59;2131747;81;27879;-61
2021/03/06 11:09:07;;;;;;;12.78;6.60;;;;;;;6.97;47.12;101747.70;2136299;81;28844;-61
2021/03/06 11:12:22;;;;;;;4.35;3.15;;;;;;;6.90;46.60;101741.13;2122063;81;31145;-60
2021/03/06 11:15:29;;;;;;;10.30;4.00;;;;;;;6.81;46.59;101734.98;2123303;82;34466;-61
2021/03/06 11:18:32;;;;;;;9.23;4.03;;;;;;;6.76;46.42;101747.49;2126110;81;28858;-60
2021/03/06 11:21:34;;;;;;;5.08;3.17;;;;;;;6.78;46.42;101743.03;2134480;82;27949;-61
2021/03/06 11:24:37;;;;;;;4.67;2.60;;;;;;;6.79;45.36;101734.58;2116110;82;28827;-61
2021/03/06 11:27:48;;;;;;;6.00;2.55;;;;;;;6.80;45.39;101727.89;2129988;81;29908;-60
2021/03/06 11:30:53;;;;;;;6.85;3.52;;;;;;;6.79;45.17;101726.13;2147805;82;33105;-61
2021/03/06 11:33:59;;;;;;;4.47;2.47;;;;;;;6.79;44.81;101720.80;2154413;82;29742;-62
2021/03/06 11:37:04;;;;;;;6.65;3.80;;;;;;;6.78;45.19;101710.17;2143274;82;27716;-61
2021/03/06 11:40:30;;;;;;;7.67;3.70;;;;;;;6.77;45.23;101718.63;2146988;81;28835;-60
2021/03/06 11:43:34;;;;;;;6.97;3.15;;;;;;;6.74;45.06;101710.67;1985805;88;31214;-62
2021/03/06 11:46:42;;;;;;;8.08;3.40;;;;;;;6.71;44.95;101703.14;1995370;88;33967;-61
2021/03/06 11:49:50;;;;;;;4.28;2.98;;;;;;;6.67;44.83;101699.63;1953933;89;28880;-62
2021/03/06 11:52:55;;;;;;;7.92;4.08;;;;;;;6.67;45.29;101695.64;1987716;88;27813;-61
2021/03/06 11:56:01;;;;;;;9.45;4.45;;;;;;;6.74;45.20;101693.79;1995170;88;28854;-60
2021/03/06 11:59:06;;;;;;;9.20;4.85;;;;;;;6.74;44.68;101693.36;1982410;88;31178;-60
2021/03/06 12:02:10;;;;;;;9.50;5.23;;;;;;;6.67;44.98;101685.89;1983915;88;33134;-60
2021/03/06 12:05:16;;;;;;;12.15;7.62;;;;;;;6.59;44.71;101677.08;1986278;88;28985;-60
2021/03/06 12:08:24;;;;;;;9.95;5.05;;;;;;;6.53;45.00;101672.71;1986280;88;28034;-60
2021/03/06 12:14:43;;;;;;;7.07;3.90;;;;;;;6.49;44.65;101660.33;2331993;74;32351;-60
2021/03/06 12:17:53;;;;;;;7.05;3.80;;;;;;;6.51;45.22;101658.99;2275177;77;28232;-61
2021/03/06 12:20:59;;;;;;;7.70;4.90;;;;;;;6.63;45.27;101653.95;2287306;77;28123;-60
2021/03/06 12:24:09;;;;;;;7.85;3.80;;;;;;;6.77;44.95;101653.81;2274969;77;32085;-61
2021/03/06 12:27:14;;;;;;;3.75;2.92;;;;;;;6.89;44.47;101650.98;2282480;77;34030;-61
2021/03/06 12:30:20;;;;;;;7.37;3.60;;;;;;;6.99;44.12;101653.09;2273544;77;28473;-60
2021/03/06 12:33:26;;;;;;;6.50;3.45;;;;;;;7.05;44.10;101647.69;2282354;77;27940;-61
2021/03/06 12:36:36;;;;;;;7.15;3.85;;;;;;;7.11;43.45;101646.29;2281753;77;28812;-61
2021/03/06 12:39:42;;;;;;;15.43;9.75;;;;;;;7.14;43.15;101641.36;2269976;77;32357;-60
2021/03/06 12:42:53;;;;;;;9.75;4.90;;;;;;;7.21;43.54;101641.69;2284026;77;33108;-61
2021/03/06 12:45:59;;;;;;;9.15;5.28;;;;;;;7.29;43.61;101636.24;2274409;77;28851;-60
2021/03/06 12:49:05;;;;;;;6.00;3.47;;;;;;;7.40;43.28;101632.09;2282803;77;27588;-60
2021/03/06 12:52:08;;;;;;;5.58;3.77;;;;;;;7.49;42.93;101635.08;2277044;77;28783;-59
2021/03/06 12:55:11;;;;;;;8.15;3.50;;;;;;;7.48;42.95;101627.55;2274582;77;31118;-60
2021/03/06 12:58:14;;;;;;;9.48;4.58;;;;;;;7.50;41.66;101632.41;2266083;77;33338;-60
2021/03/06 13:01:16;;;;;;;5.80;3.33;;;;;;;7.50;42.41;101620.41;2281139;77;28935;-59
2021/03/06 13:04:20;;;;;;;6.20;3.52;;;;;;;7.52;43.08;101621.27;2274538;77;27668;-58
2021/03/06 13:07:23;;;;;;;6.67;4.37;;;;;;;7.52;43.00;101611.03;2270712;77;29346;-59
2021/03/06 13:10:26;;;;;;;13.78;5.50;;;;;;;7.51;42.96;101611.50;2280621;77;31386;-59
2021/03/06 13:13:28;;;;;;;9.08;4.03;;;;;;;7.51;42.67;101606.17;2199270;80;35399;-59
2021/03/06 13:16:30;;;;;;;8.88;4.40;;;;;;;7.52;43.00;101605.27;2218712;80;29371;-66
2021/03/06 13:19:32;;;;;;;6.08;3.85;;;;;;;7.57;42.81;101607.39;2223997;79;27776;-60
2021/03/06 13:22:34;;;;;;;6.45;4.10;;;;;;;7.59;42.97;101605.58;2263093;77;29234;-63
2021/03/06 13:25:40;;;;;;;6.00;3.65;;;;;;;7.63;41.99;101593.53;2279101;77;31123;-62
2021/03/06 13:28:42;;;;;;;6.30;3.70;;;;;;;7.62;42.62;101591.77;2274203;77;33098;-60
2021/03/06 13:31:44;;;;;;;5.03;3.65;;;;;;;7.61;42.06;101600.23;2270787;77;29120;-57
2021/03/06 13:34:46;;;;;;;10.05;5.58;;;;;;;7.58;42.55;101600.28;2264783;77;27798;-60
2021/03/06 13:37:49;;;;;;;8.35;4.75;;;;;;;7.48;42.22;101599.55;2289439;77;28872;-59
2021/03/06 13:40:51;;;;;;;9.10;5.00;;;;;;;7.35;42.26;101600.17;2276795;77;31898;-58
2021/03/06 13:43:55;;;;;;;9.88;4.90;;;;;;;7.27;42.46;101605.63;2278519;77;33564;-59
2021/03/06 13:46:57;;;;;;;11.93;4.28;;;;;;;7.26;42.45;101603.00;2288773;77;28945;-59
2021/03/06 13:50:00;;;;;;;9.78;5.25;;;;;;;7.28;42.08;101582.53;2278613;77;27632;-59
2021/03/06 13:53:04;;;;;;;5.05;3.25;;;;;;;7.29;40.73;101582.93;2272109;77;28797;-58
2021/03/06 13:56:07;;;;;;;6.08;3.30;;;;;;;7.18;41.35;101587.55;2284491;77;31182;-60
2021/03/06 13:59:09;;;;;;;5.37;2.85;;;;;;;7.06;41.59;101577.52;2276884;77;34308;-59
2021/03/06 14:02:11;;;;;;;9.85;5.97;;;;;;;7.01;41.65;101577.16;2273845;77;28888;-58
2021/03/06 14:05:13;;;;;;;6.58;3.90;;;;;;;6.95;41.57;101573.66;2278172;77;27559;-58
2021/03/06 14:08:15;;;;;;;3.98;2.67;;;;;;;6.93;41.83;101573.27;2280326;77;29725;-59
2021/03/06 14:11:18;;;;;;;13.43;6.95;;;;;;;6.88;40.56;101559.98;2279002;77;31116;-58
2021/03/06 14:14:20;;;;;;;9.38;3.30;;;;;;;6.81;41.39;101558.33;2271730;77;33128;-60
2021/03/06 14:17:22;;;;;;;9.40;4.17;;;;;;;6.73;41.01;101563.76;2278769;77;28545;-59
2021/03/06 14:20:24;;;;;;;7.25;3.92;;;;;;;6.65;40.93;101558.53;2265122;77;28364;-58